Página principal
METAR-TAF:

METAR-TAF

Aeroportos :

Aeroporto Internacional Julius Nyerere

Dar es Salaam, Tanzânia

latitude: 06-52S, longitude: 039-12E, altura: 55 m

Observação actual do tempo

O boletim foi feito há 2 horas e 14 minutos, às 21:00 UTC
Vento calmo
Temperatura 23°C
Humidade 89%
Pressão 1016 hPa
Visibilidade 10 km ou mais
Poucas nuvensa uma altura de 1600 ft

METAR: HTDA 222100Z 00000KT 9999 FEW016 23/21 Q1016 NOSIG

Hora: 02:14 (23:14 UTC)

Previsão

O boletim foi feito há 6 horas e 14 minutos, às 17:00 UTC
Previsão válida de 22 às 18 UTC a 23 às 24 UTC
Vento 5 kt de sudeste
Visibilidade 10 km ou mais
Poucas nuvensa uma altura de 2000 ft
A partir de 23 às 0000 UTC
Vento kt de norte
Probabilidade 30% :
Temporariamente
de 23 às 03 UTC a 23 às 07 UTC
Nuvens fragmentadasa uma altura de 2000 ft
chuva
Tornando-se
de 23 às 07 UTC a 23 às 10 UTC
Vento 10 kt de es-sudeste

TAF: HTDA 221700Z 2218/2324 14005KT 9999 FEW020 FM230000Z 00000KT PROB30 TEMPO 2303/2307 BKN020 RA BECMG 2307/2310 11010KT

Observações e previsões do tempo de mais de 4000 aeroportos (mensagens METAR e TAF).

As estações disponíveis são os pontos amarelos e vermelhos sobre o mapa.

Mova o rato sobre o mapa para ver o nome da estação.

Depois clique no ponto para visualizar as observações e previsões meteorológicas.

Para alterar o mapa : clique nos botões verdes com uma cruz preta para aumentar o zoom; no botão verde com uma pitada de zoom; ou nas setas verdes para mapas adjacentes.


METAR-TAF: